BVX177 ENTC-ENSB
Flight info
| Callsign | BVX177 |
|---|---|
| Flight time | 1h 35m |
| Altitude | 37000 |
| Route | LOMVI P600 INPAR |
| Aircraft | A319/M-SDE3FGHIRWY/LB1 |
Departure
| Time | 2026-05-07 09:48 |
|---|---|
| Airport | Tromsø Airport (ENTC) |
Arrival
| Time | 2026-05-07 11:23 |
|---|---|
| Airport | Svalbard Airport, Longyear (ENSB) |
| Time | Latitude | Longitude | Altitude | Speed | Heading |
|---|---|---|---|---|---|
| 2026-05-07 09:26 | 69.68048 | 18.90965 | 36 ft | 0 kts | 283° |
| 2026-05-07 09:35 | 69.68048 | 18.90966 | 36 ft | 0 kts | 283° |
| 2026-05-07 09:41 | 69.68045 | 18.91004 | 34 ft | 4 kts | 283° |
| 2026-05-07 09:41 | 69.68039 | 18.91080 | 35 ft | 4 kts | 283° |
| 2026-05-07 09:41 | 69.68033 | 18.91154 | 35 ft | 3 kts | 283° |
| 2026-05-07 09:41 | 69.68032 | 18.91161 | 35 ft | 0 kts | 283° |
| 2026-05-07 09:43 | 69.68035 | 18.91157 | 35 ft | 1 kts | 316° |
| 2026-05-07 09:43 | 69.68052 | 18.91211 | 33 ft | 9 kts | 57° |
| 2026-05-07 09:44 | 69.68136 | 18.91373 | 32 ft | 20 kts | 13° |
| 2026-05-07 09:44 | 69.68285 | 18.91474 | 27 ft | 24 kts | 13° |
| 2026-05-07 09:44 | 69.68465 | 18.91514 | 29 ft | 27 kts | 9° |
| 2026-05-07 09:44 | 69.68648 | 18.91633 | 25 ft | 25 kts | 13° |
| 2026-05-07 09:45 | 69.68775 | 18.91741 | 20 ft | 13 kts | 51° |
| 2026-05-07 09:45 | 69.68763 | 18.92010 | 20 ft | 15 kts | 104° |
| 2026-05-07 09:45 | 69.68814 | 18.92210 | 21 ft | 15 kts | 15° |
| 2026-05-07 09:45 | 69.68926 | 18.92283 | 24 ft | 18 kts | 13° |
| 2026-05-07 09:46 | 69.69062 | 18.92374 | 23 ft | 21 kts | 13° |
| 2026-05-07 09:46 | 69.69213 | 18.92474 | 23 ft | 24 kts | 13° |
| 2026-05-07 09:46 | 69.69341 | 18.92534 | 23 ft | 11 kts | 359° |
| 2026-05-07 09:46 | 69.69348 | 18.92597 | 23 ft | 5 kts | 169° |
| 2026-05-07 09:47 | 69.69299 | 18.92531 | 23 ft | 12 kts | 196° |
| 2026-05-07 09:47 | 69.69125 | 18.92415 | 23 ft | 55 kts | 193° |
| 2026-05-07 09:47 | 69.68533 | 18.92021 | 26 ft | 118 kts | 193° |
| 2026-05-07 09:47 | 69.67590 | 18.91398 | 321 ft | 145 kts | 194° |
| 2026-05-07 09:48 | 69.66613 | 18.90783 | 1025 ft | 144 kts | 193° |
| 2026-05-07 09:48 | 69.65632 | 18.90172 | 1763 ft | 144 kts | 193° |
| 2026-05-07 09:48 | 69.64657 | 18.89520 | 2424 ft | 144 kts | 193° |
| 2026-05-07 09:48 | 69.63676 | 18.88850 | 3011 ft | 146 kts | 193° |
| 2026-05-07 09:49 | 69.62664 | 18.88157 | 3482 ft | 157 kts | 193° |
| 2026-05-07 09:49 | 69.61524 | 18.87391 | 3823 ft | 179 kts | 193° |
| 2026-05-07 09:49 | 69.60240 | 18.86536 | 4178 ft | 202 kts | 193° |
| 2026-05-07 09:49 | 69.58871 | 18.85325 | 4778 ft | 210 kts | 211° |
| 2026-05-07 09:50 | 69.57989 | 18.82055 | 5501 ft | 214 kts | 256° |
| 2026-05-07 09:50 | 69.58037 | 18.77771 | 6204 ft | 226 kts | 285° |
| 2026-05-07 09:50 | 69.58892 | 18.73744 | 6645 ft | 253 kts | 319° |
| 2026-05-07 09:50 | 69.60541 | 18.71564 | 7282 ft | 270 kts | 346° |
| 2026-05-07 09:51 | 69.62394 | 18.70348 | 8193 ft | 276 kts | 347° |
| 2026-05-07 09:51 | 69.64254 | 18.69206 | 9172 ft | 278 kts | 347° |
| 2026-05-07 09:51 | 69.66156 | 18.68048 | 10128 ft | 281 kts | 346° |
| 2026-05-07 09:51 | 69.68144 | 18.66815 | 10576 ft | 303 kts | 346° |
| 2026-05-07 09:52 | 69.70287 | 18.65459 | 10865 ft | 327 kts | 346° |
| 2026-05-07 09:52 | 69.72585 | 18.63999 | 11146 ft | 347 kts | 346° |
| 2026-05-07 09:52 | 69.74977 | 18.62479 | 11781 ft | 355 kts | 346° |
| 2026-05-07 09:52 | 69.77397 | 18.60931 | 12531 ft | 358 kts | 346° |
| 2026-05-07 09:53 | 69.79843 | 18.59351 | 13313 ft | 362 kts | 345° |
| 2026-05-07 09:53 | 69.82316 | 18.57751 | 14056 ft | 365 kts | 345° |
| 2026-05-07 09:53 | 69.84805 | 18.56145 | 14755 ft | 368 kts | 345° |
| 2026-05-07 09:53 | 69.87313 | 18.54522 | 15450 ft | 371 kts | 345° |
| 2026-05-07 09:54 | 69.89844 | 18.52871 | 16147 ft | 374 kts | 345° |
| 2026-05-07 09:54 | 69.92392 | 18.51199 | 16869 ft | 377 kts | 345° |
| 2026-05-07 09:54 | 69.94966 | 18.49513 | 17588 ft | 380 kts | 345° |
| 2026-05-07 09:54 | 69.97560 | 18.47819 | 18283 ft | 384 kts | 345° |
| 2026-05-07 09:55 | 70.00183 | 18.46106 | 18872 ft | 388 kts | 346° |
| 2026-05-07 09:55 | 70.02830 | 18.44365 | 19447 ft | 391 kts | 346° |
| 2026-05-07 09:55 | 70.05463 | 18.42617 | 19998 ft | 395 kts | 346° |
| 2026-05-07 09:55 | 70.08153 | 18.40826 | 20574 ft | 398 kts | 346° |
| 2026-05-07 09:56 | 70.10864 | 18.39023 | 21110 ft | 402 kts | 346° |
| 2026-05-07 09:56 | 70.13610 | 18.37193 | 21637 ft | 405 kts | 346° |
| 2026-05-07 09:56 | 70.16367 | 18.35349 | 22137 ft | 408 kts | 346° |
| 2026-05-07 09:56 | 70.19148 | 18.33484 | 22639 ft | 411 kts | 346° |
| 2026-05-07 09:57 | 70.21945 | 18.31606 | 23133 ft | 414 kts | 346° |
| 2026-05-07 09:57 | 70.24767 | 18.29708 | 23628 ft | 417 kts | 346° |
| 2026-05-07 09:57 | 70.27609 | 18.27790 | 24045 ft | 420 kts | 346° |
| 2026-05-07 09:57 | 70.30468 | 18.25851 | 24449 ft | 423 kts | 346° |
| 2026-05-07 09:58 | 70.33342 | 18.23897 | 24836 ft | 426 kts | 346° |
| 2026-05-07 09:58 | 70.36244 | 18.21924 | 25212 ft | 429 kts | 346° |
| 2026-05-07 09:58 | 70.39160 | 18.19927 | 25610 ft | 431 kts | 346° |
| 2026-05-07 09:58 | 70.42056 | 18.17936 | 25987 ft | 434 kts | 346° |
| 2026-05-07 09:59 | 70.45010 | 18.15903 | 26341 ft | 437 kts | 346° |
| 2026-05-07 09:59 | 70.47988 | 18.13851 | 26673 ft | 440 kts | 346° |
| 2026-05-07 09:59 | 70.50984 | 18.11779 | 27023 ft | 443 kts | 346° |
| 2026-05-07 09:59 | 70.53992 | 18.09690 | 27379 ft | 445 kts | 346° |
| 2026-05-07 10:00 | 70.57022 | 18.07572 | 27694 ft | 448 kts | 346° |
| 2026-05-07 10:00 | 70.60069 | 18.05437 | 28015 ft | 451 kts | 346° |
| 2026-05-07 10:00 | 70.63137 | 18.03289 | 28332 ft | 453 kts | 346° |
| 2026-05-07 10:00 | 70.66213 | 18.01133 | 28749 ft | 454 kts | 346° |
| 2026-05-07 10:01 | 70.69283 | 17.98976 | 29227 ft | 453 kts | 347° |
| 2026-05-07 10:01 | 70.72356 | 17.96808 | 29670 ft | 453 kts | 347° |
| 2026-05-07 10:01 | 70.75425 | 17.94630 | 30123 ft | 453 kts | 346° |
| 2026-05-07 10:01 | 70.78494 | 17.92445 | 30482 ft | 453 kts | 346° |
| 2026-05-07 10:02 | 70.81566 | 17.90251 | 30819 ft | 453 kts | 346° |
| 2026-05-07 10:02 | 70.84643 | 17.88039 | 31162 ft | 454 kts | 346° |
| 2026-05-07 10:02 | 70.87714 | 17.85824 | 31492 ft | 455 kts | 347° |
| 2026-05-07 10:02 | 70.90799 | 17.83594 | 31839 ft | 455 kts | 347° |
| 2026-05-07 10:03 | 70.93876 | 17.81363 | 32174 ft | 455 kts | 347° |
| 2026-05-07 10:03 | 70.96964 | 17.79120 | 32507 ft | 456 kts | 347° |
| 2026-05-07 10:03 | 71.00055 | 17.76861 | 32840 ft | 457 kts | 347° |
| 2026-05-07 10:03 | 71.03106 | 17.74621 | 33154 ft | 458 kts | 347° |
| 2026-05-07 10:04 | 71.06206 | 17.72353 | 33497 ft | 458 kts | 347° |
| 2026-05-07 10:04 | 71.09309 | 17.70087 | 33825 ft | 459 kts | 347° |
| 2026-05-07 10:04 | 71.12419 | 17.67813 | 34133 ft | 460 kts | 347° |
| 2026-05-07 10:04 | 71.15538 | 17.65521 | 34424 ft | 460 kts | 347° |
| 2026-05-07 10:05 | 71.18652 | 17.63218 | 34706 ft | 461 kts | 347° |
| 2026-05-07 10:05 | 71.21773 | 17.60898 | 34990 ft | 461 kts | 347° |
| 2026-05-07 10:05 | 71.24893 | 17.58561 | 35268 ft | 462 kts | 347° |
| 2026-05-07 10:05 | 71.28015 | 17.56216 | 35551 ft | 462 kts | 346° |
| 2026-05-07 10:06 | 71.31141 | 17.53862 | 35826 ft | 462 kts | 347° |
| 2026-05-07 10:06 | 71.34273 | 17.51494 | 36084 ft | 463 kts | 347° |
| 2026-05-07 10:06 | 71.37406 | 17.49116 | 36342 ft | 463 kts | 346° |
| 2026-05-07 10:06 | 71.40539 | 17.46733 | 36602 ft | 464 kts | 346° |
| 2026-05-07 10:07 | 71.43636 | 17.44374 | 36849 ft | 464 kts | 346° |
| 2026-05-07 10:07 | 71.46779 | 17.41976 | 37018 ft | 465 kts | 347° |
| 2026-05-07 10:07 | 71.49916 | 17.39576 | 37059 ft | 464 kts | 347° |
| 2026-05-07 10:08 | 71.56174 | 17.34760 | 37056 ft | 462 kts | 347° |
| 2026-05-07 10:08 | 71.62419 | 17.29914 | 37065 ft | 462 kts | 347° |
| 2026-05-07 10:09 | 71.68666 | 17.25041 | 37064 ft | 462 kts | 347° |
| 2026-05-07 10:09 | 71.74903 | 17.20112 | 37064 ft | 462 kts | 347° |
| 2026-05-07 10:10 | 71.81148 | 17.15164 | 37071 ft | 462 kts | 346° |
| 2026-05-07 10:10 | 71.87387 | 17.10176 | 37069 ft | 462 kts | 347° |
| 2026-05-07 10:11 | 71.93628 | 17.05142 | 37076 ft | 462 kts | 346° |
| 2026-05-07 10:11 | 71.99831 | 17.00241 | 37081 ft | 462 kts | 351° |
| 2026-05-07 10:12 | 72.06230 | 16.97695 | 37075 ft | 461 kts | 354° |
| 2026-05-07 10:12 | 72.12576 | 16.95295 | 37080 ft | 461 kts | 354° |
| 2026-05-07 10:13 | 72.18955 | 16.92860 | 37083 ft | 461 kts | 354° |
| 2026-05-07 10:13 | 72.25316 | 16.90426 | 37080 ft | 461 kts | 354° |
| 2026-05-07 10:14 | 72.31668 | 16.87954 | 37075 ft | 461 kts | 354° |
| 2026-05-07 10:14 | 72.38054 | 16.85513 | 37085 ft | 460 kts | 354° |
| 2026-05-07 10:15 | 72.44415 | 16.83046 | 37091 ft | 460 kts | 354° |
| 2026-05-07 10:15 | 72.50774 | 16.80537 | 37091 ft | 460 kts | 354° |
| 2026-05-07 10:16 | 72.57115 | 16.78027 | 37096 ft | 460 kts | 354° |
| 2026-05-07 10:16 | 72.63485 | 16.75512 | 37090 ft | 460 kts | 354° |
| 2026-05-07 10:17 | 72.69828 | 16.72964 | 37103 ft | 460 kts | 354° |
| 2026-05-07 10:17 | 72.76193 | 16.70387 | 37105 ft | 460 kts | 354° |
| 2026-05-07 10:18 | 72.82511 | 16.67786 | 37106 ft | 460 kts | 354° |
| 2026-05-07 10:18 | 72.88865 | 16.65176 | 37117 ft | 460 kts | 354° |
| 2026-05-07 10:19 | 72.95199 | 16.62593 | 37116 ft | 459 kts | 354° |
| 2026-05-07 10:19 | 73.01551 | 16.59951 | 37117 ft | 459 kts | 354° |
| 2026-05-07 10:20 | 73.07882 | 16.57291 | 37115 ft | 459 kts | 354° |
| 2026-05-07 10:20 | 73.14229 | 16.54604 | 37119 ft | 459 kts | 354° |
| 2026-05-07 10:21 | 73.20561 | 16.51940 | 37119 ft | 459 kts | 354° |
| 2026-05-07 10:21 | 73.26892 | 16.49222 | 37121 ft | 459 kts | 354° |
| 2026-05-07 10:22 | 73.32173 | 16.46914 | 37136 ft | 459 kts | 354° |
| 2026-05-07 10:22 | 73.38497 | 16.44153 | 37132 ft | 459 kts | 354° |
| 2026-05-07 10:23 | 73.44849 | 16.41372 | 37148 ft | 459 kts | 354° |
| 2026-05-07 10:23 | 73.51175 | 16.38603 | 37151 ft | 459 kts | 354° |
| 2026-05-07 10:24 | 73.57539 | 16.35768 | 37150 ft | 459 kts | 354° |
| 2026-05-07 10:24 | 73.63873 | 16.32958 | 37164 ft | 459 kts | 354° |
| 2026-05-07 10:25 | 73.70190 | 16.30119 | 37160 ft | 459 kts | 354° |
| 2026-05-07 10:25 | 73.76526 | 16.27224 | 37167 ft | 459 kts | 354° |
| 2026-05-07 10:26 | 73.82839 | 16.24322 | 37171 ft | 459 kts | 354° |
| 2026-05-07 10:26 | 73.89174 | 16.21425 | 37181 ft | 458 kts | 354° |
| 2026-05-07 10:27 | 73.95503 | 16.18507 | 37180 ft | 458 kts | 354° |
| 2026-05-07 10:27 | 74.01788 | 16.15544 | 37175 ft | 458 kts | 354° |
| 2026-05-07 10:28 | 74.08103 | 16.12541 | 37183 ft | 458 kts | 354° |
| 2026-05-07 10:28 | 74.14438 | 16.09529 | 37182 ft | 458 kts | 354° |
| 2026-05-07 10:29 | 74.20750 | 16.06504 | 37191 ft | 458 kts | 354° |
| 2026-05-07 10:29 | 74.27046 | 16.03435 | 37190 ft | 458 kts | 354° |
| 2026-05-07 10:30 | 74.36539 | 15.98800 | 37194 ft | 458 kts | 354° |
| 2026-05-07 10:30 | 74.42872 | 15.95685 | 37195 ft | 458 kts | 354° |
| 2026-05-07 10:31 | 74.49180 | 15.92549 | 37193 ft | 458 kts | 353° |
| 2026-05-07 10:31 | 74.55510 | 15.89374 | 37201 ft | 458 kts | 354° |
| 2026-05-07 10:32 | 74.61831 | 15.86191 | 37209 ft | 458 kts | 354° |
| 2026-05-07 10:32 | 74.68120 | 15.83009 | 37220 ft | 458 kts | 354° |
| 2026-05-07 10:33 | 74.74444 | 15.79736 | 37221 ft | 458 kts | 353° |
| 2026-05-07 10:33 | 74.80737 | 15.76477 | 37221 ft | 458 kts | 354° |
| 2026-05-07 10:34 | 74.87063 | 15.73210 | 37215 ft | 458 kts | 354° |
| 2026-05-07 10:34 | 74.93355 | 15.69874 | 37217 ft | 457 kts | 353° |
| 2026-05-07 10:35 | 74.99664 | 15.66516 | 37228 ft | 457 kts | 354° |
| 2026-05-07 10:35 | 75.05963 | 15.63149 | 37225 ft | 457 kts | 353° |
| 2026-05-07 10:36 | 75.12248 | 15.59749 | 37235 ft | 457 kts | 353° |
| 2026-05-07 10:36 | 75.18567 | 15.56302 | 37230 ft | 456 kts | 353° |
| 2026-05-07 10:37 | 75.24853 | 15.52877 | 37235 ft | 456 kts | 353° |
| 2026-05-07 10:37 | 75.31153 | 15.49394 | 37236 ft | 456 kts | 353° |
| 2026-05-07 10:38 | 75.37422 | 15.45907 | 37238 ft | 456 kts | 353° |
| 2026-05-07 10:38 | 75.43703 | 15.42362 | 37241 ft | 456 kts | 353° |
| 2026-05-07 10:39 | 75.49958 | 15.38790 | 37239 ft | 455 kts | 353° |
| 2026-05-07 10:39 | 75.56250 | 15.35232 | 37235 ft | 455 kts | 353° |
| 2026-05-07 10:40 | 75.62517 | 15.31617 | 37243 ft | 455 kts | 353° |
| 2026-05-07 10:40 | 75.68763 | 15.27983 | 37247 ft | 455 kts | 353° |
| 2026-05-07 10:41 | 75.75031 | 15.24264 | 37254 ft | 455 kts | 353° |
| 2026-05-07 10:41 | 75.81284 | 15.20543 | 37258 ft | 455 kts | 353° |
| 2026-05-07 10:42 | 75.87570 | 15.16780 | 37261 ft | 455 kts | 353° |
| 2026-05-07 10:42 | 75.93833 | 15.13047 | 37276 ft | 455 kts | 353° |
| 2026-05-07 10:43 | 76.00113 | 15.09253 | 37270 ft | 455 kts | 353° |
| 2026-05-07 10:43 | 76.06376 | 15.05378 | 37270 ft | 455 kts | 353° |
| 2026-05-07 10:44 | 76.12642 | 15.01466 | 37274 ft | 455 kts | 353° |
| 2026-05-07 10:44 | 76.18911 | 14.97551 | 37275 ft | 455 kts | 353° |
| 2026-05-07 10:45 | 76.25160 | 14.93623 | 37290 ft | 455 kts | 353° |
| 2026-05-07 10:45 | 76.31408 | 14.89644 | 37285 ft | 455 kts | 352° |
| 2026-05-07 10:46 | 76.37658 | 14.85615 | 37287 ft | 455 kts | 353° |
| 2026-05-07 10:46 | 76.43886 | 14.81524 | 37283 ft | 455 kts | 352° |
| 2026-05-07 10:47 | 76.50169 | 14.77358 | 37283 ft | 455 kts | 352° |
| 2026-05-07 10:47 | 76.56407 | 14.73194 | 37287 ft | 455 kts | 352° |
| 2026-05-07 10:48 | 76.62654 | 14.68974 | 37287 ft | 455 kts | 352° |
| 2026-05-07 10:48 | 76.68909 | 14.64701 | 37288 ft | 455 kts | 352° |
| 2026-05-07 10:49 | 76.75166 | 14.60393 | 37289 ft | 455 kts | 352° |
| 2026-05-07 10:49 | 76.81426 | 14.56026 | 37290 ft | 455 kts | 352° |
| 2026-05-07 10:50 | 76.87683 | 14.51641 | 37292 ft | 455 kts | 352° |
| 2026-05-07 10:50 | 76.93900 | 14.47226 | 37294 ft | 455 kts | 352° |
| 2026-05-07 10:51 | 77.00155 | 14.42753 | 37294 ft | 455 kts | 352° |
| 2026-05-07 10:51 | 77.03284 | 14.40518 | 36976 ft | 457 kts | 352° |
| 2026-05-07 10:51 | 77.06443 | 14.38259 | 36231 ft | 462 kts | 352° |
| 2026-05-07 10:52 | 77.09627 | 14.35970 | 35468 ft | 465 kts | 352° |
| 2026-05-07 10:52 | 77.12826 | 14.33635 | 34862 ft | 465 kts | 352° |
| 2026-05-07 10:52 | 77.16014 | 14.31272 | 34265 ft | 464 kts | 352° |
| 2026-05-07 10:52 | 77.19200 | 14.28903 | 33457 ft | 464 kts | 352° |
| 2026-05-07 10:53 | 77.22376 | 14.26533 | 32651 ft | 463 kts | 352° |
| 2026-05-07 10:53 | 77.25550 | 14.24164 | 31875 ft | 462 kts | 352° |
| 2026-05-07 10:53 | 77.28717 | 14.21802 | 31079 ft | 461 kts | 352° |
| 2026-05-07 10:53 | 77.31876 | 14.19444 | 30244 ft | 460 kts | 352° |
| 2026-05-07 10:54 | 77.35032 | 14.17073 | 29194 ft | 459 kts | 352° |
| 2026-05-07 10:54 | 77.38183 | 14.14682 | 28067 ft | 460 kts | 352° |
| 2026-05-07 10:54 | 77.41346 | 14.12276 | 26864 ft | 461 kts | 352° |
| 2026-05-07 10:54 | 77.44520 | 14.09856 | 25657 ft | 463 kts | 352° |
| 2026-05-07 10:55 | 77.47707 | 14.07400 | 24411 ft | 465 kts | 352° |
| 2026-05-07 10:55 | 77.50886 | 14.04922 | 23478 ft | 460 kts | 352° |
| 2026-05-07 10:55 | 77.54014 | 14.02469 | 22507 ft | 452 kts | 352° |
| 2026-05-07 10:55 | 77.57093 | 14.00052 | 21517 ft | 445 kts | 352° |
| 2026-05-07 10:56 | 77.60126 | 13.97672 | 20532 ft | 439 kts | 352° |
| 2026-05-07 10:56 | 77.63121 | 13.95304 | 19621 ft | 434 kts | 352° |
| 2026-05-07 10:56 | 77.66075 | 13.92962 | 18736 ft | 428 kts | 352° |
| 2026-05-07 10:56 | 77.68997 | 13.90631 | 17753 ft | 423 kts | 352° |
| 2026-05-07 10:57 | 77.71880 | 13.88323 | 16775 ft | 417 kts | 352° |
| 2026-05-07 10:57 | 77.74724 | 13.86055 | 15833 ft | 412 kts | 352° |
| 2026-05-07 10:57 | 77.77529 | 13.83798 | 14922 ft | 407 kts | 352° |
| 2026-05-07 10:57 | 77.80299 | 13.81549 | 14062 ft | 402 kts | 352° |
| 2026-05-07 10:58 | 77.83024 | 13.79320 | 13154 ft | 397 kts | 352° |
| 2026-05-07 10:58 | 77.85697 | 13.77142 | 12479 ft | 390 kts | 352° |
| 2026-05-07 10:58 | 77.88292 | 13.75011 | 12330 ft | 368 kts | 352° |
| 2026-05-07 10:58 | 77.90747 | 13.72968 | 12189 ft | 347 kts | 352° |
| 2026-05-07 10:59 | 77.93054 | 13.71026 | 12050 ft | 325 kts | 352° |
| 2026-05-07 10:59 | 77.95214 | 13.69206 | 11916 ft | 306 kts | 352° |
| 2026-05-07 10:59 | 77.97258 | 13.67494 | 11741 ft | 291 kts | 352° |
| 2026-05-07 10:59 | 77.99233 | 13.65846 | 11349 ft | 286 kts | 352° |
| 2026-05-07 11:00 | 78.01185 | 13.64210 | 10905 ft | 283 kts | 352° |
| 2026-05-07 11:00 | 78.03118 | 13.62587 | 10455 ft | 281 kts | 352° |
| 2026-05-07 11:00 | 78.05043 | 13.61835 | 10139 ft | 273 kts | 4° |
| 2026-05-07 11:00 | 78.06913 | 13.63276 | 10044 ft | 272 kts | 17° |
| 2026-05-07 11:01 | 78.08660 | 13.66748 | 9664 ft | 275 kts | 29° |
| 2026-05-07 11:01 | 78.10308 | 13.71167 | 9313 ft | 272 kts | 30° |
| 2026-05-07 11:01 | 78.11967 | 13.75649 | 8823 ft | 275 kts | 30° |
| 2026-05-07 11:01 | 78.13616 | 13.80118 | 8560 ft | 269 kts | 30° |
| 2026-05-07 11:02 | 78.15246 | 13.84544 | 8192 ft | 268 kts | 30° |
| 2026-05-07 11:02 | 78.16871 | 13.88970 | 7842 ft | 266 kts | 30° |
| 2026-05-07 11:02 | 78.18477 | 13.93361 | 7335 ft | 263 kts | 30° |
| 2026-05-07 11:02 | 78.20065 | 13.97720 | 6907 ft | 257 kts | 30° |
| 2026-05-07 11:03 | 78.21579 | 14.01878 | 6698 ft | 244 kts | 30° |
| 2026-05-07 11:03 | 78.23042 | 14.05893 | 6295 ft | 239 kts | 30° |
| 2026-05-07 11:03 | 78.24465 | 14.09906 | 6124 ft | 237 kts | 32° |
| 2026-05-07 11:03 | 78.25854 | 14.14345 | 5772 ft | 239 kts | 34° |
| 2026-05-07 11:04 | 78.27224 | 14.18968 | 5430 ft | 239 kts | 35° |
| 2026-05-07 11:04 | 78.28574 | 14.23579 | 5086 ft | 233 kts | 35° |
| 2026-05-07 11:04 | 78.29677 | 14.29006 | 4930 ft | 219 kts | 57° |
| 2026-05-07 11:04 | 78.30213 | 14.35802 | 4734 ft | 211 kts | 80° |
| 2026-05-07 11:05 | 78.30159 | 14.42930 | 4478 ft | 208 kts | 102° |
| 2026-05-07 11:05 | 78.29802 | 14.49681 | 4192 ft | 206 kts | 103° |
| 2026-05-07 11:05 | 78.29454 | 14.56481 | 3897 ft | 204 kts | 103° |
| 2026-05-07 11:05 | 78.29105 | 14.63213 | 3614 ft | 202 kts | 103° |
| 2026-05-07 11:06 | 78.28765 | 14.69706 | 3325 ft | 201 kts | 103° |
| 2026-05-07 11:06 | 78.28414 | 14.76363 | 3031 ft | 200 kts | 103° |
| 2026-05-07 11:06 | 78.28064 | 14.82978 | 2741 ft | 199 kts | 103° |
| 2026-05-07 11:06 | 78.27715 | 14.89546 | 2445 ft | 196 kts | 104° |
| 2026-05-07 11:07 | 78.27379 | 14.95836 | 2176 ft | 184 kts | 104° |
| 2026-05-07 11:07 | 78.27062 | 15.01746 | 1882 ft | 173 kts | 104° |
| 2026-05-07 11:07 | 78.26766 | 15.07230 | 1603 ft | 159 kts | 105° |
| 2026-05-07 11:07 | 78.26493 | 15.12286 | 1366 ft | 148 kts | 105° |
| 2026-05-07 11:08 | 78.26236 | 15.17020 | 1150 ft | 139 kts | 105° |
| 2026-05-07 11:08 | 78.25992 | 15.21498 | 954 ft | 134 kts | 105° |
| 2026-05-07 11:08 | 78.25752 | 15.25874 | 780 ft | 131 kts | 105° |
| 2026-05-07 11:08 | 78.25516 | 15.30181 | 609 ft | 130 kts | 105° |
| 2026-05-07 11:09 | 78.25283 | 15.34459 | 428 ft | 129 kts | 105° |
| 2026-05-07 11:09 | 78.25052 | 15.38719 | 264 ft | 129 kts | 105° |
| 2026-05-07 11:09 | 78.24817 | 15.42943 | 93 ft | 127 kts | 105° |
| 2026-05-07 11:09 | 78.24665 | 15.45572 | 256 ft | 123 kts | 105° |
| 2026-05-07 11:10 | 78.24346 | 15.51321 | 1165 ft | 141 kts | 105° |
| 2026-05-07 11:10 | 78.24077 | 15.56176 | 2063 ft | 153 kts | 105° |
| 2026-05-07 11:10 | 78.23784 | 15.61539 | 2479 ft | 174 kts | 104° |
| 2026-05-07 11:10 | 78.23559 | 15.65590 | 2767 ft | 190 kts | 104° |
| 2026-05-07 11:11 | 78.23193 | 15.72063 | 3426 ft | 201 kts | 104° |
| 2026-05-07 11:11 | 78.22813 | 15.78619 | 4257 ft | 205 kts | 104° |
| 2026-05-07 11:11 | 78.22411 | 15.85377 | 4556 ft | 207 kts | 105° |
| 2026-05-07 11:11 | 78.22017 | 15.92129 | 4610 ft | 205 kts | 101° |
| 2026-05-07 11:12 | 78.22158 | 15.98929 | 4620 ft | 204 kts | 65° |
| 2026-05-07 11:12 | 78.23110 | 16.03887 | 4628 ft | 204 kts | 28° |
| 2026-05-07 11:12 | 78.24493 | 16.05195 | 4629 ft | 207 kts | 355° |
| 2026-05-07 11:12 | 78.25788 | 16.02224 | 4620 ft | 211 kts | 318° |
| 2026-05-07 11:13 | 78.26568 | 15.96108 | 4638 ft | 214 kts | 296° |
| 2026-05-07 11:13 | 78.27133 | 15.89348 | 4611 ft | 213 kts | 293° |
| 2026-05-07 11:13 | 78.27669 | 15.82640 | 4611 ft | 214 kts | 293° |
| 2026-05-07 11:13 | 78.28185 | 15.75789 | 4610 ft | 214 kts | 289° |
| 2026-05-07 11:14 | 78.28618 | 15.68802 | 4602 ft | 214 kts | 288° |
| 2026-05-07 11:14 | 78.29038 | 15.61769 | 4616 ft | 214 kts | 288° |
| 2026-05-07 11:14 | 78.29458 | 15.54703 | 4615 ft | 217 kts | 288° |
| 2026-05-07 11:14 | 78.29882 | 15.47504 | 4613 ft | 220 kts | 288° |
| 2026-05-07 11:15 | 78.30308 | 15.40251 | 4612 ft | 220 kts | 288° |
| 2026-05-07 11:15 | 78.30730 | 15.33008 | 4583 ft | 219 kts | 287° |
| 2026-05-07 11:15 | 78.31150 | 15.25784 | 4298 ft | 219 kts | 287° |
| 2026-05-07 11:15 | 78.31569 | 15.18574 | 4026 ft | 218 kts | 287° |
| 2026-05-07 11:16 | 78.31985 | 15.11427 | 3761 ft | 216 kts | 287° |
| 2026-05-07 11:16 | 78.32400 | 15.04311 | 3504 ft | 215 kts | 287° |
| 2026-05-07 11:16 | 78.32811 | 14.97221 | 3231 ft | 215 kts | 287° |
| 2026-05-07 11:16 | 78.33211 | 14.90247 | 3047 ft | 213 kts | 287° |
| 2026-05-07 11:17 | 78.33623 | 14.83253 | 3015 ft | 212 kts | 287° |
| 2026-05-07 11:17 | 78.34033 | 14.76254 | 3018 ft | 212 kts | 286° |
| 2026-05-07 11:17 | 78.34091 | 14.69043 | 3019 ft | 214 kts | 254° |
| 2026-05-07 11:17 | 78.33302 | 14.62957 | 3021 ft | 214 kts | 218° |
| 2026-05-07 11:18 | 78.32007 | 14.59349 | 3032 ft | 214 kts | 204° |
| 2026-05-07 11:18 | 78.30638 | 14.56425 | 3021 ft | 215 kts | 200° |
| 2026-05-07 11:18 | 78.29191 | 14.55681 | 3016 ft | 206 kts | 162° |
| 2026-05-07 11:18 | 78.28154 | 14.59700 | 3028 ft | 187 kts | 114° |
| 2026-05-07 11:19 | 78.28109 | 14.65732 | 3017 ft | 178 kts | 70° |
| 2026-05-07 11:19 | 78.28482 | 14.71513 | 2989 ft | 179 kts | 84° |
| 2026-05-07 11:19 | 78.28262 | 14.77536 | 2926 ft | 180 kts | 100° |
| 2026-05-07 11:19 | 78.28003 | 14.83465 | 2703 ft | 178 kts | 101° |
| 2026-05-07 11:20 | 78.27713 | 14.89366 | 2444 ft | 177 kts | 102° |
| 2026-05-07 11:20 | 78.27411 | 14.95174 | 2188 ft | 172 kts | 103° |
| 2026-05-07 11:20 | 78.27117 | 15.00695 | 1935 ft | 162 kts | 104° |
| 2026-05-07 11:20 | 78.26838 | 15.05894 | 1675 ft | 153 kts | 104° |
| 2026-05-07 11:21 | 78.26572 | 15.10820 | 1439 ft | 145 kts | 104° |
| 2026-05-07 11:21 | 78.26321 | 15.15454 | 1223 ft | 137 kts | 104° |
| 2026-05-07 11:21 | 78.26079 | 15.19901 | 1026 ft | 133 kts | 104° |
| 2026-05-07 11:21 | 78.25841 | 15.24255 | 841 ft | 131 kts | 104° |
| 2026-05-07 11:22 | 78.25606 | 15.28550 | 673 ft | 130 kts | 104° |
| 2026-05-07 11:22 | 78.25371 | 15.32824 | 516 ft | 129 kts | 104° |
| 2026-05-07 11:22 | 78.25145 | 15.37022 | 355 ft | 128 kts | 104° |
| 2026-05-07 11:22 | 78.24911 | 15.41297 | 146 ft | 128 kts | 105° |
| 2026-05-07 11:23 | 78.24687 | 15.45244 | 91 ft | 111 kts | 105° |
| 2026-05-07 11:23 | 78.24528 | 15.48075 | 99 ft | 61 kts | 105° |
| 2026-05-07 11:23 | 78.24466 | 15.49194 | 95 ft | 13 kts | 99° |
| 2026-05-07 11:23 | 78.24500 | 15.49438 | 94 ft | 3 kts | 19° |
| 2026-05-07 11:24 | 78.24532 | 15.49484 | 94 ft | 6 kts | 16° |
| 2026-05-07 11:24 | 78.24538 | 15.49492 | 95 ft | 0 kts | 16° |
| 2026-05-07 11:24 | 78.24540 | 15.49483 | 95 ft | 1 kts | 348° |
| 2026-05-07 11:24 | 78.24566 | 15.49346 | 95 ft | 9 kts | 311° |
| 2026-05-07 11:25 | 78.24604 | 15.49144 | 96 ft | 7 kts | 313° |
| 2026-05-07 11:25 | 78.24627 | 15.49183 | 95 ft | 3 kts | 70° |
| 2026-05-07 11:25 | 78.24630 | 15.49255 | 96 ft | 1 kts | 78° |
| 2026-05-07 11:25 | 78.24632 | 15.49285 | 96 ft | 0 kts | 78° |